sensor_id;sensor_type;location;lat;lon;timestamp;P1;durP1;ratioP1;P2;durP2;ratioP2
41546;SDS011;27271;45.412;10.852;2023-11-21T05:01:48;20.88;;;12.00;;
41546;SDS011;27271;45.412;10.852;2023-11-21T05:05:14;21.23;;;11.65;;
41546;SDS011;27271;45.412;10.852;2023-11-21T05:08:36;23.38;;;12.23;;
41546;SDS011;27271;45.412;10.852;2023-11-21T05:12:01;24.17;;;11.63;;
41546;SDS011;27271;45.412;10.852;2023-11-21T05:15:27;21.92;;;12.43;;
41546;SDS011;27271;45.412;10.852;2023-11-21T05:19:07;20.87;;;11.73;;
41546;SDS011;27271;45.412;10.852;2023-11-21T05:22:36;24.53;;;13.07;;
41546;SDS011;27271;45.412;10.852;2023-11-21T05:26:03;21.80;;;11.68;;
41546;SDS011;27271;45.412;10.852;2023-11-21T05:29:30;20.63;;;11.63;;
41546;SDS011;27271;45.412;10.852;2023-11-21T05:36:42;30.25;;;13.60;;
41546;SDS011;27271;45.412;10.852;2023-11-21T05:40:08;31.55;;;14.15;;
41546;SDS011;27271;45.412;10.852;2023-11-21T05:43:36;25.30;;;13.77;;
41546;SDS011;27271;45.412;10.852;2023-11-21T05:47:01;27.75;;;14.30;;
41546;SDS011;27271;45.412;10.852;2023-11-21T05:50:26;30.73;;;15.77;;
41546;SDS011;27271;45.412;10.852;2023-11-21T05:53:51;32.92;;;17.17;;
41546;SDS011;27271;45.412;10.852;2023-11-21T05:57:14;39.55;;;18.00;;
41546;SDS011;27271;45.412;10.852;2023-11-21T06:00:38;39.42;;;17.95;;
41546;SDS011;27271;45.412;10.852;2023-11-21T06:04:01;34.40;;;17.45;;
41546;SDS011;27271;45.412;10.852;2023-11-21T06:07:24;40.38;;;17.75;;
41546;SDS011;27271;45.412;10.852;2023-11-21T06:10:47;33.45;;;16.73;;
41546;SDS011;27271;45.412;10.852;2023-11-21T06:14:11;33.17;;;16.60;;
41546;SDS011;27271;45.412;10.852;2023-11-21T06:17:36;31.55;;;16.02;;
41546;SDS011;27271;45.412;10.852;2023-11-21T06:21:00;40.08;;;16.25;;
41546;SDS011;27271;45.412;10.852;2023-11-21T06:24:23;32.70;;;16.35;;
41546;SDS011;27271;45.412;10.852;2023-11-21T06:27:47;32.97;;;15.52;;
41546;SDS011;27271;45.412;10.852;2023-11-21T06:31:10;30.02;;;14.65;;
41546;SDS011;27271;45.412;10.852;2023-11-21T06:34:33;34.50;;;15.88;;
41546;SDS011;27271;45.412;10.852;2023-11-21T06:37:56;30.67;;;14.55;;
41546;SDS011;27271;45.412;10.852;2023-11-21T06:41:19;31.98;;;14.68;;
41546;SDS011;27271;45.412;10.852;2023-11-21T06:44:41;29.52;;;15.20;;
41546;SDS011;27271;45.412;10.852;2023-11-21T06:48:03;29.60;;;15.80;;
41546;SDS011;27271;45.412;10.852;2023-11-21T06:51:25;26.38;;;13.93;;
41546;SDS011;27271;45.412;10.852;2023-11-21T06:54:48;33.13;;;16.23;;
41546;SDS011;27271;45.412;10.852;2023-11-21T06:58:11;33.65;;;15.57;;
41546;SDS011;27271;45.412;10.852;2023-11-21T07:01:33;32.63;;;15.32;;
41546;SDS011;27271;45.412;10.852;2023-11-21T07:05:02;30.55;;;15.93;;
41546;SDS011;27271;45.412;10.852;2023-11-21T07:08:25;30.92;;;14.35;;
41546;SDS011;27271;45.412;10.852;2023-11-21T07:11:48;36.33;;;15.25;;
41546;SDS011;27271;45.412;10.852;2023-11-21T07:15:12;30.70;;;16.13;;
41546;SDS011;27271;45.412;10.852;2023-11-21T07:18:35;27.00;;;14.30;;
41546;SDS011;27271;45.412;10.852;2023-11-21T07:21:57;31.05;;;13.93;;
41546;SDS011;27271;45.412;10.852;2023-11-21T07:25:19;28.35;;;13.38;;
41546;SDS011;27271;45.412;10.852;2023-11-21T07:28:42;28.65;;;14.43;;
41546;SDS011;27271;45.412;10.852;2023-11-21T07:32:05;32.53;;;13.95;;
41546;SDS011;27271;45.412;10.852;2023-11-21T07:35:39;27.20;;;12.35;;
41546;SDS011;27271;45.412;10.852;2023-11-21T07:39:02;22.58;;;12.48;;
41546;SDS011;27271;45.412;10.852;2023-11-21T07:42:24;24.65;;;13.38;;
41546;SDS011;27271;45.412;10.852;2023-11-21T07:45:48;27.52;;;12.93;;
41546;SDS011;27271;45.412;10.852;2023-11-21T07:49:11;31.38;;;14.45;;
41546;SDS011;27271;45.412;10.852;2023-11-21T07:52:37;26.10;;;12.52;;
41546;SDS011;27271;45.412;10.852;2023-11-21T07:56:04;19.48;;;11.05;;
41546;SDS011;27271;45.412;10.852;2023-11-21T07:59:28;17.25;;;10.50;;
41546;SDS011;27271;45.412;10.852;2023-11-21T08:02:50;20.85;;;10.35;;
41546;SDS011;27271;45.412;10.852;2023-11-21T08:06:13;20.63;;;9.98;;
41546;SDS011;27271;45.412;10.852;2023-11-21T08:09:37;17.77;;;9.88;;
41546;SDS011;27271;45.412;10.852;2023-11-21T08:13:00;18.92;;;9.65;;
41546;SDS011;27271;45.412;10.852;2023-11-21T08:16:22;16.58;;;8.95;;
41546;SDS011;27271;45.412;10.852;2023-11-21T08:19:46;17.02;;;8.85;;
41546;SDS011;27271;45.412;10.852;2023-11-21T08:23:11;17.40;;;9.65;;
41546;SDS011;27271;45.412;10.852;2023-11-21T08:26:33;16.55;;;8.90;;
41546;SDS011;27271;45.412;10.852;2023-11-21T08:29:55;16.80;;;9.32;;
41546;SDS011;27271;45.412;10.852;2023-11-21T08:33:18;17.30;;;9.30;;
41546;SDS011;27271;45.412;10.852;2023-11-21T08:36:44;16.30;;;8.93;;
41546;SDS011;27271;45.412;10.852;2023-11-21T08:40:07;19.40;;;8.77;;
41546;SDS011;27271;45.412;10.852;2023-11-21T08:43:31;14.98;;;8.48;;
41546;SDS011;27271;45.412;10.852;2023-11-21T08:46:53;19.30;;;9.05;;
41546;SDS011;27271;45.412;10.852;2023-11-21T08:50:15;13.95;;;8.63;;
41546;SDS011;27271;45.412;10.852;2023-11-21T08:53:38;14.50;;;8.30;;
41546;SDS011;27271;45.412;10.852;2023-11-21T08:57:00;17.67;;;9.35;;
41546;SDS011;27271;45.412;10.852;2023-11-21T09:00:22;15.50;;;9.20;;
41546;SDS011;27271;45.412;10.852;2023-11-21T09:03:45;13.95;;;8.60;;
41546;SDS011;27271;45.412;10.852;2023-11-21T09:07:07;17.55;;;8.45;;
41546;SDS011;27271;45.412;10.852;2023-11-21T09:10:29;15.65;;;9.68;;
41546;SDS011;27271;45.412;10.852;2023-11-21T09:13:52;16.27;;;9.73;;
41546;SDS011;27271;45.412;10.852;2023-11-21T09:17:14;15.07;;;9.02;;
41546;SDS011;27271;45.412;10.852;2023-11-21T09:20:36;25.80;;;10.55;;
41546;SDS011;27271;45.412;10.852;2023-11-21T09:23:59;18.92;;;10.50;;
41546;SDS011;27271;45.412;10.852;2023-11-21T09:27:21;18.30;;;9.98;;
41546;SDS011;27271;45.412;10.852;2023-11-21T09:30:44;16.08;;;8.43;;
41546;SDS011;27271;45.412;10.852;2023-11-21T09:34:06;11.60;;;6.78;;
41546;SDS011;27271;45.412;10.852;2023-11-21T09:37:29;10.63;;;6.30;;
41546;SDS011;27271;45.412;10.852;2023-11-21T09:40:52;9.88;;;6.00;;
41546;SDS011;27271;45.412;10.852;2023-11-21T09:44:20;10.02;;;6.68;;
41546;SDS011;27271;45.412;10.852;2023-11-21T09:47:52;9.40;;;6.20;;
41546;SDS011;27271;45.412;10.852;2023-11-21T09:51:19;8.32;;;6.30;;
41546;SDS011;27271;45.412;10.852;2023-11-21T09:54:43;12.75;;;7.07;;
41546;SDS011;27271;45.412;10.852;2023-11-21T09:58:06;11.10;;;6.68;;
41546;SDS011;27271;45.412;10.852;2023-11-21T10:01:35;10.95;;;6.75;;
41546;SDS011;27271;45.412;10.852;2023-11-21T10:05:00;11.10;;;6.65;;
41546;SDS011;27271;45.412;10.852;2023-11-21T10:08:23;12.75;;;6.82;;
41546;SDS011;27271;45.412;10.852;2023-11-21T10:12:07;9.35;;;5.93;;
41546;SDS011;27271;45.412;10.852;2023-11-21T10:15:36;13.88;;;7.13;;
41546;SDS011;27271;45.412;10.852;2023-11-21T10:18:58;11.55;;;6.90;;
41546;SDS011;27271;45.412;10.852;2023-11-21T10:22:32;8.75;;;5.97;;
41546;SDS011;27271;45.412;10.852;2023-11-21T10:25:55;11.20;;;6.82;;
41546;SDS011;27271;45.412;10.852;2023-11-21T10:29:31;11.40;;;7.05;;
41546;SDS011;27271;45.412;10.852;2023-11-21T10:33:00;15.90;;;8.80;;
41546;SDS011;27271;45.412;10.852;2023-11-21T10:36:25;14.38;;;8.23;;
41546;SDS011;27271;45.412;10.852;2023-11-21T10:39:49;17.65;;;8.98;;
41546;SDS011;27271;45.412;10.852;2023-11-21T10:43:11;17.17;;;9.18;;
41546;SDS011;27271;45.412;10.852;2023-11-21T10:46:37;14.65;;;9.13;;
41546;SDS011;27271;45.412;10.852;2023-11-21T10:50:02;16.23;;;8.80;;
41546;SDS011;27271;45.412;10.852;2023-11-21T10:53:28;13.75;;;7.80;;
41546;SDS011;27271;45.412;10.852;2023-11-21T10:56:57;13.13;;;7.85;;
41546;SDS011;27271;45.412;10.852;2023-11-21T11:00:21;14.57;;;8.00;;
41546;SDS011;27271;45.412;10.852;2023-11-21T11:03:44;11.88;;;7.60;;
41546;SDS011;27271;45.412;10.852;2023-11-21T11:07:07;13.52;;;8.65;;
41546;SDS011;27271;45.412;10.852;2023-11-21T11:10:33;13.93;;;9.25;;
41546;SDS011;27271;45.412;10.852;2023-11-21T11:13:56;12.75;;;7.55;;
41546;SDS011;27271;45.412;10.852;2023-11-21T11:17:21;14.00;;;8.85;;
41546;SDS011;27271;45.412;10.852;2023-11-21T11:20:45;16.20;;;8.77;;
41546;SDS011;27271;45.412;10.852;2023-11-21T11:31:55;16.75;;;9.75;;
41546;SDS011;27271;45.412;10.852;2023-11-21T11:35:43;22.13;;;11.02;;
41546;SDS011;27271;45.412;10.852;2023-11-21T11:39:26;23.20;;;11.85;;
41546;SDS011;27271;45.412;10.852;2023-11-21T11:43:00;23.98;;;12.20;;
41546;SDS011;27271;45.412;10.852;2023-11-21T11:46:59;25.35;;;13.48;;
41546;SDS011;27271;45.412;10.852;2023-11-21T11:50:15;31.23;;;14.20;;
41546;SDS011;27271;45.412;10.852;2023-11-21T11:53:39;25.63;;;14.70;;
41546;SDS011;27271;45.412;10.852;2023-11-21T11:57:03;31.55;;;15.88;;
41546;SDS011;27271;45.412;10.852;2023-11-21T12:04:26;26.90;;;14.45;;
41546;SDS011;27271;45.412;10.852;2023-11-21T12:07:56;26.38;;;14.15;;
41546;SDS011;27271;45.412;10.852;2023-11-21T12:11:19;24.88;;;14.63;;
41546;SDS011;27271;45.412;10.852;2023-11-21T12:14:41;24.50;;;13.38;;
41546;SDS011;27271;45.412;10.852;2023-11-21T12:18:04;28.77;;;14.38;;
41546;SDS011;27271;45.412;10.852;2023-11-21T12:21:27;27.52;;;15.10;;
41546;SDS011;27271;45.412;10.852;2023-11-21T12:24:51;30.33;;;14.95;;
41546;SDS011;27271;45.412;10.852;2023-11-21T12:28:13;24.25;;;12.75;;
41546;SDS011;27271;45.412;10.852;2023-11-21T12:31:35;24.15;;;12.43;;
41546;SDS011;27271;45.412;10.852;2023-11-21T12:34:58;17.13;;;10.27;;
41546;SDS011;27271;45.412;10.852;2023-11-21T12:38:20;19.50;;;10.88;;
41546;SDS011;27271;45.412;10.852;2023-11-21T12:41:46;21.30;;;10.68;;
41546;SDS011;27271;45.412;10.852;2023-11-21T12:45:29;20.25;;;10.98;;
41546;SDS011;27271;45.412;10.852;2023-11-21T12:48:52;17.77;;;10.45;;
41546;SDS011;27271;45.412;10.852;2023-11-21T12:52:15;24.95;;;10.40;;
41546;SDS011;27271;45.412;10.852;2023-11-21T12:55:37;20.77;;;8.82;;
41546;SDS011;27271;45.412;10.852;2023-11-21T12:59:01;12.23;;;8.13;;
41546;SDS011;27271;45.412;10.852;2023-11-21T13:02:26;21.83;;;8.40;;
41546;SDS011;27271;45.412;10.852;2023-11-21T13:05:49;15.50;;;7.88;;
41546;SDS011;27271;45.412;10.852;2023-11-21T13:09:16;19.50;;;7.10;;
41546;SDS011;27271;45.412;10.852;2023-11-21T13:12:44;10.85;;;6.47;;
41546;SDS011;27271;45.412;10.852;2023-11-21T13:16:09;9.10;;;5.97;;
41546;SDS011;27271;45.412;10.852;2023-11-21T13:19:31;13.55;;;6.13;;
41546;SDS011;27271;45.412;10.852;2023-11-21T13:22:54;13.88;;;6.45;;
41546;SDS011;27271;45.412;10.852;2023-11-21T13:26:20;12.70;;;6.78;;
41546;SDS011;27271;45.412;10.852;2023-11-21T13:29:45;14.30;;;8.02;;
41546;SDS011;27271;45.412;10.852;2023-11-21T13:33:07;15.85;;;7.65;;
41546;SDS011;27271;45.412;10.852;2023-11-21T13:36:31;13.88;;;7.70;;
41546;SDS011;27271;45.412;10.852;2023-11-21T13:39:57;13.43;;;7.43;;
41546;SDS011;27271;45.412;10.852;2023-11-21T13:43:20;17.45;;;7.82;;
41546;SDS011;27271;45.412;10.852;2023-11-21T13:46:46;14.98;;;7.40;;
41546;SDS011;27271;45.412;10.852;2023-11-21T13:50:08;12.95;;;7.40;;
41546;SDS011;27271;45.412;10.852;2023-11-21T13:53:38;12.85;;;7.40;;
41546;SDS011;27271;45.412;10.852;2023-11-21T13:57:02;14.45;;;7.75;;
41546;SDS011;27271;45.412;10.852;2023-11-21T14:00:26;11.68;;;7.45;;
41546;SDS011;27271;45.412;10.852;2023-11-21T14:04:07;13.73;;;6.82;;
41546;SDS011;27271;45.412;10.852;2023-11-21T14:07:49;13.63;;;6.50;;
41546;SDS011;27271;45.412;10.852;2023-11-21T14:11:11;13.50;;;6.93;;
41546;SDS011;27271;45.412;10.852;2023-11-21T14:14:39;11.98;;;6.47;;
41546;SDS011;27271;45.412;10.852;2023-11-21T14:18:02;10.75;;;6.18;;
41546;SDS011;27271;45.412;10.852;2023-11-21T14:21:29;13.50;;;6.97;;
41546;SDS011;27271;45.412;10.852;2023-11-21T14:24:52;11.38;;;6.70;;
41546;SDS011;27271;45.412;10.852;2023-11-21T14:28:14;12.63;;;6.47;;
41546;SDS011;27271;45.412;10.852;2023-11-21T14:31:36;16.05;;;6.43;;
41546;SDS011;27271;45.412;10.852;2023-11-21T14:34:58;12.05;;;6.85;;
41546;SDS011;27271;45.412;10.852;2023-11-21T14:38:20;13.73;;;6.78;;
41546;SDS011;27271;45.412;10.852;2023-11-21T14:41:42;15.50;;;8.15;;
41546;SDS011;27271;45.412;10.852;2023-11-21T14:45:06;19.52;;;7.18;;
41546;SDS011;27271;45.412;10.852;2023-11-21T14:48:29;12.68;;;7.18;;
41546;SDS011;27271;45.412;10.852;2023-11-21T14:52:04;13.93;;;7.20;;
41546;SDS011;27271;45.412;10.852;2023-11-21T14:55:40;13.38;;;6.97;;
41546;SDS011;27271;45.412;10.852;2023-11-21T14:59:11;14.32;;;6.22;;
41546;SDS011;27271;45.412;10.852;2023-11-21T15:02:38;11.52;;;6.68;;
41546;SDS011;27271;45.412;10.852;2023-11-21T15:06:12;11.10;;;6.78;;
41546;SDS011;27271;45.412;10.852;2023-11-21T15:09:41;15.32;;;7.07;;
41546;SDS011;27271;45.412;10.852;2023-11-21T15:13:04;11.27;;;7.05;;
41546;SDS011;27271;45.412;10.852;2023-11-21T15:16:26;10.75;;;6.18;;
41546;SDS011;27271;45.412;10.852;2023-11-21T15:19:48;12.43;;;6.28;;
41546;SDS011;27271;45.412;10.852;2023-11-21T15:23:12;9.18;;;6.03;;
41546;SDS011;27271;45.412;10.852;2023-11-21T15:26:34;11.30;;;6.43;;
41546;SDS011;27271;45.412;10.852;2023-11-21T15:29:56;9.48;;;5.20;;
41546;SDS011;27271;45.412;10.852;2023-11-21T15:33:19;8.90;;;5.38;;
41546;SDS011;27271;45.412;10.852;2023-11-21T15:36:41;9.23;;;4.65;;
41546;SDS011;27271;45.412;10.852;2023-11-21T15:40:08;11.20;;;4.50;;
41546;SDS011;27271;45.412;10.852;2023-11-21T15:43:31;7.15;;;4.03;;
41546;SDS011;27271;45.412;10.852;2023-11-21T15:46:54;7.18;;;3.97;;
41546;SDS011;27271;45.412;10.852;2023-11-21T15:50:20;8.55;;;3.58;;
41546;SDS011;27271;45.412;10.852;2023-11-21T15:53:45;5.07;;;2.75;;
41546;SDS011;27271;45.412;10.852;2023-11-21T15:57:08;3.80;;;2.03;;
41546;SDS011;27271;45.412;10.852;2023-11-21T16:00:32;3.17;;;2.05;;
41546;SDS011;27271;45.412;10.852;2023-11-21T16:03:55;2.38;;;1.50;;
41546;SDS011;27271;45.412;10.852;2023-11-21T16:07:17;9.73;;;4.45;;
41546;SDS011;27271;45.412;10.852;2023-11-21T16:10:39;7.30;;;4.05;;
41546;SDS011;27271;45.412;10.852;2023-11-21T16:14:02;7.82;;;2.88;;
41546;SDS011;27271;45.412;10.852;2023-11-21T16:17:24;5.05;;;2.42;;
41546;SDS011;27271;45.412;10.852;2023-11-21T16:20:48;4.15;;;2.10;;
41546;SDS011;27271;45.412;10.852;2023-11-21T16:24:12;3.67;;;1.73;;
41546;SDS011;27271;45.412;10.852;2023-11-21T16:27:34;3.35;;;1.38;;
41546;SDS011;27271;45.412;10.852;2023-11-21T16:30:56;2.85;;;1.40;;
41546;SDS011;27271;45.412;10.852;2023-11-21T16:34:19;4.88;;;1.35;;
41546;SDS011;27271;45.412;10.852;2023-11-21T16:37:43;3.80;;;1.55;;
41546;SDS011;27271;45.412;10.852;2023-11-21T16:41:09;4.47;;;1.58;;
41546;SDS011;27271;45.412;10.852;2023-11-21T16:44:33;3.55;;;1.40;;
41546;SDS011;27271;45.412;10.852;2023-11-21T16:47:55;2.63;;;1.45;;
41546;SDS011;27271;45.412;10.852;2023-11-21T16:51:19;2.67;;;1.70;;
41546;SDS011;27271;45.412;10.852;2023-11-21T16:54:41;3.83;;;1.40;;
41546;SDS011;27271;45.412;10.852;2023-11-21T16:58:10;3.33;;;1.45;;
41546;SDS011;27271;45.412;10.852;2023-11-21T17:01:33;2.20;;;1.38;;
41546;SDS011;27271;45.412;10.852;2023-11-21T17:04:55;6.47;;;1.45;;
41546;SDS011;27271;45.412;10.852;2023-11-21T17:08:22;4.57;;;1.90;;
41546;SDS011;27271;45.412;10.852;2023-11-21T17:11:48;2.80;;;1.63;;
41546;SDS011;27271;45.412;10.852;2023-11-21T17:15:12;2.42;;;1.52;;
41546;SDS011;27271;45.412;10.852;2023-11-21T17:18:38;3.50;;;2.05;;
41546;SDS011;27271;45.412;10.852;2023-11-21T17:22:02;6.55;;;2.17;;
41546;SDS011;27271;45.412;10.852;2023-11-21T17:25:26;2.92;;;1.67;;
41546;SDS011;27271;45.412;10.852;2023-11-21T17:28:49;4.03;;;1.83;;
41546;SDS011;27271;45.412;10.852;2023-11-21T17:32:24;3.08;;;1.88;;
41546;SDS011;27271;45.412;10.852;2023-11-21T17:35:48;2.83;;;1.85;;
41546;SDS011;27271;45.412;10.852;2023-11-21T17:39:21;3.03;;;1.65;;
41546;SDS011;27271;45.412;10.852;2023-11-21T17:42:45;2.97;;;1.65;;
41546;SDS011;27271;45.412;10.852;2023-11-21T17:46:08;3.03;;;1.58;;
41546;SDS011;27271;45.412;10.852;2023-11-21T17:49:31;3.55;;;1.80;;
41546;SDS011;27271;45.412;10.852;2023-11-21T17:53:03;4.38;;;2.35;;
41546;SDS011;27271;45.412;10.852;2023-11-21T17:56:32;4.88;;;2.35;;
41546;SDS011;27271;45.412;10.852;2023-11-21T17:59:59;3.08;;;2.10;;
41546;SDS011;27271;45.412;10.852;2023-11-21T18:03:28;3.13;;;2.20;;
41546;SDS011;27271;45.412;10.852;2023-11-21T18:06:58;2.70;;;1.80;;
41546;SDS011;27271;45.412;10.852;2023-11-21T18:10:25;2.28;;;2.00;;
41546;SDS011;27271;45.412;10.852;2023-11-21T18:13:49;2.88;;;2.10;;
41546;SDS011;27271;45.412;10.852;2023-11-21T18:17:11;4.45;;;2.20;;
41546;SDS011;27271;45.412;10.852;2023-11-21T18:20:37;4.68;;;2.22;;
41546;SDS011;27271;45.412;10.852;2023-11-21T18:23:59;3.70;;;2.33;;
41546;SDS011;27271;45.412;10.852;2023-11-21T18:27:25;3.00;;;1.75;;
41546;SDS011;27271;45.412;10.852;2023-11-21T18:30:54;4.40;;;1.80;;
41546;SDS011;27271;45.412;10.852;2023-11-21T18:34:23;4.60;;;1.73;;
41546;SDS011;27271;45.412;10.852;2023-11-21T18:37:46;3.80;;;1.88;;
41546;SDS011;27271;45.412;10.852;2023-11-21T18:41:31;1.83;;;1.50;;
41546;SDS011;27271;45.412;10.852;2023-11-21T18:44:54;2.47;;;1.58;;
41546;SDS011;27271;45.412;10.852;2023-11-21T18:48:20;2.15;;;1.75;;
41546;SDS011;27271;45.412;10.852;2023-11-21T18:51:46;4.03;;;1.75;;
41546;SDS011;27271;45.412;10.852;2023-11-21T18:55:12;1.80;;;1.42;;
41546;SDS011;27271;45.412;10.852;2023-11-21T18:58:34;3.58;;;1.77;;
41546;SDS011;27271;45.412;10.852;2023-11-21T19:01:59;1.88;;;1.48;;
41546;SDS011;27271;45.412;10.852;2023-11-21T19:05:26;1.67;;;1.35;;
41546;SDS011;27271;45.412;10.852;2023-11-21T19:08:54;5.95;;;2.92;;
41546;SDS011;27271;45.412;10.852;2023-11-21T19:12:17;5.88;;;3.65;;
41546;SDS011;27271;45.412;10.852;2023-11-21T19:15:42;7.07;;;3.90;;
41546;SDS011;27271;45.412;10.852;2023-11-21T19:19:07;7.97;;;4.32;;
41546;SDS011;27271;45.412;10.852;2023-11-21T19:22:33;9.82;;;5.28;;
41546;SDS011;27271;45.412;10.852;2023-11-21T19:25:58;9.05;;;4.70;;
41546;SDS011;27271;45.412;10.852;2023-11-21T19:29:31;10.45;;;6.13;;
41546;SDS011;27271;45.412;10.852;2023-11-21T19:32:56;10.23;;;6.20;;
41546;SDS011;27271;45.412;10.852;2023-11-21T19:36:21;17.08;;;6.32;;
41546;SDS011;27271;45.412;10.852;2023-11-21T19:39:45;17.02;;;8.77;;
41546;SDS011;27271;45.412;10.852;2023-11-21T19:43:08;8.85;;;5.47;;
41546;SDS011;27271;45.412;10.852;2023-11-21T19:46:32;7.30;;;4.78;;
41546;SDS011;27271;45.412;10.852;2023-11-21T19:49:56;11.15;;;7.10;;
41546;SDS011;27271;45.412;10.852;2023-11-21T19:53:22;18.52;;;8.45;;
41546;SDS011;27271;45.412;10.852;2023-11-21T19:56:48;16.48;;;8.52;;
41546;SDS011;27271;45.412;10.852;2023-11-21T20:00:17;18.27;;;11.25;;
41546;SDS011;27271;45.412;10.852;2023-11-21T20:03:44;18.80;;;12.77;;
41546;SDS011;27271;45.412;10.852;2023-11-21T20:07:15;13.65;;;8.23;;
41546;SDS011;27271;45.412;10.852;2023-11-21T20:10:46;13.10;;;8.35;;
41546;SDS011;27271;45.412;10.852;2023-11-21T20:14:14;17.80;;;10.18;;
41546;SDS011;27271;45.412;10.852;2023-11-21T20:17:55;17.55;;;10.35;;
41546;SDS011;27271;45.412;10.852;2023-11-21T20:21:19;20.90;;;10.70;;
41546;SDS011;27271;45.412;10.852;2023-11-21T20:24:50;20.40;;;12.07;;
41546;SDS011;27271;45.412;10.852;2023-11-21T20:28:14;54.72;;;24.88;;
41546;SDS011;27271;45.412;10.852;2023-11-21T20:31:37;48.75;;;20.77;;
41546;SDS011;27271;45.412;10.852;2023-11-21T20:35:00;26.73;;;14.95;;
41546;SDS011;27271;45.412;10.852;2023-11-21T20:38:37;18.00;;;10.00;;
41546;SDS011;27271;45.412;10.852;2023-11-21T20:42:03;24.70;;;12.98;;
41546;SDS011;27271;45.412;10.852;2023-11-21T20:45:27;23.92;;;13.20;;
41546;SDS011;27271;45.412;10.852;2023-11-21T20:48:53;25.30;;;12.77;;
41546;SDS011;27271;45.412;10.852;2023-11-21T20:52:17;21.65;;;11.27;;
41546;SDS011;27271;45.412;10.852;2023-11-21T20:55:44;20.60;;;11.75;;
41546;SDS011;27271;45.412;10.852;2023-11-21T20:59:17;19.20;;;11.80;;
41546;SDS011;27271;45.412;10.852;2023-11-21T21:02:41;19.63;;;11.70;;
41546;SDS011;27271;45.412;10.852;2023-11-21T21:06:05;25.95;;;13.57;;
41546;SDS011;27271;45.412;10.852;2023-11-21T21:09:35;27.80;;;15.02;;
41546;SDS011;27271;45.412;10.852;2023-11-21T21:13:00;30.05;;;13.88;;
41546;SDS011;27271;45.412;10.852;2023-11-21T21:16:40;31.88;;;15.73;;
41546;SDS011;27271;45.412;10.852;2023-11-21T21:20:49;26.58;;;13.95;;
41546;SDS011;27271;45.412;10.852;2023-11-21T21:24:21;24.60;;;12.65;;
41546;SDS011;27271;45.412;10.852;2023-11-21T21:27:43;27.75;;;14.38;;
41546;SDS011;27271;45.412;10.852;2023-11-21T21:31:10;24.38;;;12.40;;
41546;SDS011;27271;45.412;10.852;2023-11-21T21:35:05;20.00;;;12.38;;
41546;SDS011;27271;45.412;10.852;2023-11-21T21:38:28;24.30;;;12.48;;
41546;SDS011;27271;45.412;10.852;2023-11-21T21:41:52;19.83;;;10.65;;
41546;SDS011;27271;45.412;10.852;2023-11-21T21:45:15;22.70;;;11.60;;
41546;SDS011;27271;45.412;10.852;2023-11-21T21:48:37;27.90;;;13.32;;
41546;SDS011;27271;45.412;10.852;2023-11-21T21:51:59;21.85;;;11.93;;
41546;SDS011;27271;45.412;10.852;2023-11-21T21:55:22;24.00;;;12.90;;
41546;SDS011;27271;45.412;10.852;2023-11-21T21:58:44;24.17;;;13.75;;
41546;SDS011;27271;45.412;10.852;2023-11-21T22:02:06;26.17;;;14.48;;
41546;SDS011;27271;45.412;10.852;2023-11-21T22:05:29;27.67;;;13.50;;
41546;SDS011;27271;45.412;10.852;2023-11-21T22:08:51;23.58;;;12.95;;
41546;SDS011;27271;45.412;10.852;2023-11-21T22:12:13;22.08;;;13.57;;
41546;SDS011;27271;45.412;10.852;2023-11-21T22:15:35;25.50;;;12.93;;
41546;SDS011;27271;45.412;10.852;2023-11-21T22:18:59;24.17;;;12.77;;
41546;SDS011;27271;45.412;10.852;2023-11-21T22:22:22;28.00;;;14.07;;
41546;SDS011;27271;45.412;10.852;2023-11-21T22:25:46;29.10;;;12.85;;
41546;SDS011;27271;45.412;10.852;2023-11-21T22:29:08;19.88;;;11.60;;
41546;SDS011;27271;45.412;10.852;2023-11-21T22:32:31;24.05;;;12.80;;
41546;SDS011;27271;45.412;10.852;2023-11-21T22:35:54;21.70;;;11.90;;
41546;SDS011;27271;45.412;10.852;2023-11-21T22:39:16;20.40;;;11.70;;
41546;SDS011;27271;45.412;10.852;2023-11-21T22:42:38;22.60;;;12.13;;
41546;SDS011;27271;45.412;10.852;2023-11-21T22:46:03;29.67;;;12.27;;
41546;SDS011;27271;45.412;10.852;2023-11-21T22:49:28;22.58;;;12.00;;
41546;SDS011;27271;45.412;10.852;2023-11-21T22:52:50;22.60;;;11.75;;
41546;SDS011;27271;45.412;10.852;2023-11-21T22:56:14;21.20;;;11.23;;
41546;SDS011;27271;45.412;10.852;2023-11-21T22:59:37;23.42;;;12.50;;
41546;SDS011;27271;45.412;10.852;2023-11-21T23:03:00;18.83;;;10.95;;
41546;SDS011;27271;45.412;10.852;2023-11-21T23:06:23;28.10;;;12.25;;
41546;SDS011;27271;45.412;10.852;2023-11-21T23:09:45;21.05;;;11.52;;
41546;SDS011;27271;45.412;10.852;2023-11-21T23:13:07;21.48;;;10.80;;
41546;SDS011;27271;45.412;10.852;2023-11-21T23:16:29;24.27;;;11.95;;
41546;SDS011;27271;45.412;10.852;2023-11-21T23:19:51;22.25;;;11.20;;
41546;SDS011;27271;45.412;10.852;2023-11-21T23:23:17;21.95;;;11.82;;
41546;SDS011;27271;45.412;10.852;2023-11-21T23:26:39;24.13;;;11.43;;
